sensor_id;sensor_type;location;lat;lon;timestamp;temperature;humidity
19292;DHT22;9779;51.756;7.450;2023-04-30T00:00:47;9.20;1.00
19292;DHT22;9779;51.756;7.450;2023-04-30T00:03:13;9.10;1.00
19292;DHT22;9779;51.756;7.450;2023-04-30T00:05:38;9.10;1.00
19292;DHT22;9779;51.756;7.450;2023-04-30T00:08:04;9.10;1.00
19292;DHT22;9779;51.756;7.450;2023-04-30T00:10:29;9.10;1.00
19292;DHT22;9779;51.756;7.450;2023-04-30T00:12:55;9.10;1.00
19292;DHT22;9779;51.756;7.450;2023-04-30T00:15:21;9.00;1.00
19292;DHT22;9779;51.756;7.450;2023-04-30T00:17:47;9.00;1.00
19292;DHT22;9779;51.756;7.450;2023-04-30T00:20:12;8.90;1.00
19292;DHT22;9779;51.756;7.450;2023-04-30T00:22:38;8.90;1.00
19292;DHT22;9779;51.756;7.450;2023-04-30T00:25:04;8.90;1.00
19292;DHT22;9779;51.756;7.450;2023-04-30T00:27:29;8.80;1.00
19292;DHT22;9779;51.756;7.450;2023-04-30T00:29:56;8.80;1.00
19292;DHT22;9779;51.756;7.450;2023-04-30T00:32:22;8.70;1.00
19292;DHT22;9779;51.756;7.450;2023-04-30T00:34:47;8.70;1.00
19292;DHT22;9779;51.756;7.450;2023-04-30T00:37:13;8.70;1.00
19292;DHT22;9779;51.756;7.450;2023-04-30T00:39:38;8.60;1.00
19292;DHT22;9779;51.756;7.450;2023-04-30T00:42:04;8.60;1.00
19292;DHT22;9779;51.756;7.450;2023-04-30T00:44:30;8.50;1.00
19292;DHT22;9779;51.756;7.450;2023-04-30T00:46:55;8.50;11.20
19292;DHT22;9779;51.756;7.450;2023-04-30T00:49:21;8.40;1.00
19292;DHT22;9779;51.756;7.450;2023-04-30T00:51:46;8.40;99.90
19292;DHT22;9779;51.756;7.450;2023-04-30T00:54:12;8.40;27.60
19292;DHT22;9779;51.756;7.450;2023-04-30T00:56:38;8.40;1.00
19292;DHT22;9779;51.756;7.450;2023-04-30T00:59:05;8.30;1.00
19292;DHT22;9779;51.756;7.450;2023-04-30T01:01:31;8.30;1.00
19292;DHT22;9779;51.756;7.450;2023-04-30T01:03:57;8.20;1.00
19292;DHT22;9779;51.756;7.450;2023-04-30T01:06:23;8.20;99.90
19292;DHT22;9779;51.756;7.450;2023-04-30T01:08:49;8.20;14.70
19292;DHT22;9779;51.756;7.450;2023-04-30T01:13:52;8.10;12.60
19292;DHT22;9779;51.756;7.450;2023-04-30T01:16:24;8.10;1.00
19292;DHT22;9779;51.756;7.450;2023-04-30T01:21:45;8.00;1.00
19292;DHT22;9779;51.756;7.450;2023-04-30T01:27:29;8.00;1.00
19292;DHT22;9779;51.756;7.450;2023-04-30T01:29:57;7.90;1.00
19292;DHT22;9779;51.756;7.450;2023-04-30T01:32:22;7.80;99.90
19292;DHT22;9779;51.756;7.450;2023-04-30T01:34:48;7.80;99.90
19292;DHT22;9779;51.756;7.450;2023-04-30T01:37:42;7.80;17.50
19292;DHT22;9779;51.756;7.450;2023-04-30T01:40:23;7.70;99.90
19292;DHT22;9779;51.756;7.450;2023-04-30T01:43:27;7.70;99.90
19292;DHT22;9779;51.756;7.450;2023-04-30T01:45:56;7.60;99.90
19292;DHT22;9779;51.756;7.450;2023-04-30T01:53:43;7.50;99.90
19292;DHT22;9779;51.756;7.450;2023-04-30T01:56:20;7.40;99.90
19292;DHT22;9779;51.756;7.450;2023-04-30T01:58:48;7.40;99.90
19292;DHT22;9779;51.756;7.450;2023-04-30T02:01:43;7.40;99.90
19292;DHT22;9779;51.756;7.450;2023-04-30T02:04:09;7.40;99.90
19292;DHT22;9779;51.756;7.450;2023-04-30T02:06:35;7.40;99.90
19292;DHT22;9779;51.756;7.450;2023-04-30T02:09:00;7.30;99.90
19292;DHT22;9779;51.756;7.450;2023-04-30T02:11:31;7.30;99.90
19292;DHT22;9779;51.756;7.450;2023-04-30T02:13:56;7.20;99.90
19292;DHT22;9779;51.756;7.450;2023-04-30T02:16:22;7.20;99.90
19292;DHT22;9779;51.756;7.450;2023-04-30T02:18:48;7.20;99.90
19292;DHT22;9779;51.756;7.450;2023-04-30T02:21:14;7.20;99.90
19292;DHT22;9779;51.756;7.450;2023-04-30T02:23:39;7.20;99.90
19292;DHT22;9779;51.756;7.450;2023-04-30T02:26:06;7.20;99.90
19292;DHT22;9779;51.756;7.450;2023-04-30T02:28:31;7.20;99.90
19292;DHT22;9779;51.756;7.450;2023-04-30T02:30:57;7.20;99.90
19292;DHT22;9779;51.756;7.450;2023-04-30T02:33:22;7.10;99.90
19292;DHT22;9779;51.756;7.450;2023-04-30T02:35:48;7.10;99.90
19292;DHT22;9779;51.756;7.450;2023-04-30T02:38:13;7.00;99.90
19292;DHT22;9779;51.756;7.450;2023-04-30T02:40:40;7.00;99.90
19292;DHT22;9779;51.756;7.450;2023-04-30T02:43:07;6.90;99.90
19292;DHT22;9779;51.756;7.450;2023-04-30T02:45:32;6.90;1.00
19292;DHT22;9779;51.756;7.450;2023-04-30T02:47:58;6.80;1.00
19292;DHT22;9779;51.756;7.450;2023-04-30T02:50:23;6.80;1.00
19292;DHT22;9779;51.756;7.450;2023-04-30T02:52:49;6.80;1.00
19292;DHT22;9779;51.756;7.450;2023-04-30T02:55:14;6.80;1.00
19292;DHT22;9779;51.756;7.450;2023-04-30T02:57:41;6.80;1.00
19292;DHT22;9779;51.756;7.450;2023-04-30T03:00:07;6.70;99.90
19292;DHT22;9779;51.756;7.450;2023-04-30T03:02:32;6.70;1.00
19292;DHT22;9779;51.756;7.450;2023-04-30T03:04:58;6.70;1.00
19292;DHT22;9779;51.756;7.450;2023-04-30T03:07:23;6.60;1.00
19292;DHT22;9779;51.756;7.450;2023-04-30T03:09:49;6.60;1.00
19292;DHT22;9779;51.756;7.450;2023-04-30T03:12:15;6.60;1.00
19292;DHT22;9779;51.756;7.450;2023-04-30T03:14:40;6.60;99.90
19292;DHT22;9779;51.756;7.450;2023-04-30T03:17:06;6.50;1.00
19292;DHT22;9779;51.756;7.450;2023-04-30T03:19:32;6.50;1.00
19292;DHT22;9779;51.756;7.450;2023-04-30T03:21:58;6.50;1.00
19292;DHT22;9779;51.756;7.450;2023-04-30T03:24:23;6.50;1.00
19292;DHT22;9779;51.756;7.450;2023-04-30T03:26:50;6.50;1.00
19292;DHT22;9779;51.756;7.450;2023-04-30T03:29:15;6.50;1.00
19292;DHT22;9779;51.756;7.450;2023-04-30T03:31:41;6.50;1.00
19292;DHT22;9779;51.756;7.450;2023-04-30T03:34:07;6.50;1.00
19292;DHT22;9779;51.756;7.450;2023-04-30T03:36:32;6.50;1.00
19292;DHT22;9779;51.756;7.450;2023-04-30T03:38:58;6.50;1.00
19292;DHT22;9779;51.756;7.450;2023-04-30T03:41:23;6.50;1.00
19292;DHT22;9779;51.756;7.450;2023-04-30T03:43:49;6.50;1.00
19292;DHT22;9779;51.756;7.450;2023-04-30T03:46:14;6.50;1.00
19292;DHT22;9779;51.756;7.450;2023-04-30T03:48:40;6.50;1.00
19292;DHT22;9779;51.756;7.450;2023-04-30T03:51:05;6.40;1.00
19292;DHT22;9779;51.756;7.450;2023-04-30T03:53:31;6.40;1.00
19292;DHT22;9779;51.756;7.450;2023-04-30T03:55:56;6.40;1.00
19292;DHT22;9779;51.756;7.450;2023-04-30T03:58:23;6.40;1.00
19292;DHT22;9779;51.756;7.450;2023-04-30T04:00:48;6.30;1.00
19292;DHT22;9779;51.756;7.450;2023-04-30T04:03:14;6.30;1.00
19292;DHT22;9779;51.756;7.450;2023-04-30T04:05:40;6.30;1.00
19292;DHT22;9779;51.756;7.450;2023-04-30T04:08:06;6.30;1.00
19292;DHT22;9779;51.756;7.450;2023-04-30T04:10:33;6.30;1.00
19292;DHT22;9779;51.756;7.450;2023-04-30T04:12:59;6.30;1.00
19292;DHT22;9779;51.756;7.450;2023-04-30T04:15:24;6.40;1.00
19292;DHT22;9779;51.756;7.450;2023-04-30T04:17:50;6.30;1.00
19292;DHT22;9779;51.756;7.450;2023-04-30T04:20:15;6.30;1.00
19292;DHT22;9779;51.756;7.450;2023-04-30T04:22:42;6.30;1.00
19292;DHT22;9779;51.756;7.450;2023-04-30T04:25:08;6.30;1.00
19292;DHT22;9779;51.756;7.450;2023-04-30T04:27:34;6.30;1.00
19292;DHT22;9779;51.756;7.450;2023-04-30T04:30:00;6.20;1.00
19292;DHT22;9779;51.756;7.450;2023-04-30T04:32:26;6.20;1.00
19292;DHT22;9779;51.756;7.450;2023-04-30T04:34:53;6.20;1.00
19292;DHT22;9779;51.756;7.450;2023-04-30T04:37:19;6.20;1.00
19292;DHT22;9779;51.756;7.450;2023-04-30T04:39:45;6.20;1.00
19292;DHT22;9779;51.756;7.450;2023-04-30T04:42:10;6.20;1.00
19292;DHT22;9779;51.756;7.450;2023-04-30T04:44:36;6.10;1.00
19292;DHT22;9779;51.756;7.450;2023-04-30T04:47:02;6.10;1.00
19292;DHT22;9779;51.756;7.450;2023-04-30T04:49:28;6.10;1.00
19292;DHT22;9779;51.756;7.450;2023-04-30T04:51:54;6.10;1.00
19292;DHT22;9779;51.756;7.450;2023-04-30T04:54:20;6.10;1.00
19292;DHT22;9779;51.756;7.450;2023-04-30T04:56:45;6.10;1.00
19292;DHT22;9779;51.756;7.450;2023-04-30T04:59:12;6.20;1.00
19292;DHT22;9779;51.756;7.450;2023-04-30T05:01:37;6.20;1.00
19292;DHT22;9779;51.756;7.450;2023-04-30T05:04:03;6.20;1.00
19292;DHT22;9779;51.756;7.450;2023-04-30T05:06:28;6.20;1.00
19292;DHT22;9779;51.756;7.450;2023-04-30T05:08:54;6.20;1.00
19292;DHT22;9779;51.756;7.450;2023-04-30T05:11:20;6.20;1.00
19292;DHT22;9779;51.756;7.450;2023-04-30T05:13:46;6.20;22.20
19292;DHT22;9779;51.756;7.450;2023-04-30T05:16:12;6.20;51.50
19292;DHT22;9779;51.756;7.450;2023-04-30T05:18:37;6.30;78.20
19292;DHT22;9779;51.756;7.450;2023-04-30T05:21:03;6.40;86.30
19292;DHT22;9779;51.756;7.450;2023-04-30T05:23:29;6.30;99.90
19292;DHT22;9779;51.756;7.450;2023-04-30T05:25:54;6.30;99.90
19292;DHT22;9779;51.756;7.450;2023-04-30T05:28:20;6.30;99.90
19292;DHT22;9779;51.756;7.450;2023-04-30T05:30:46;6.40;99.90
19292;DHT22;9779;51.756;7.450;2023-04-30T05:33:11;6.40;99.90
19292;DHT22;9779;51.756;7.450;2023-04-30T05:35:37;6.40;99.90
19292;DHT22;9779;51.756;7.450;2023-04-30T05:38:02;6.50;99.90
19292;DHT22;9779;51.756;7.450;2023-04-30T05:40:28;6.50;99.90
19292;DHT22;9779;51.756;7.450;2023-04-30T05:42:54;6.50;99.90
19292;DHT22;9779;51.756;7.450;2023-04-30T05:45:20;6.50;99.90
19292;DHT22;9779;51.756;7.450;2023-04-30T05:47:46;6.60;99.90
19292;DHT22;9779;51.756;7.450;2023-04-30T05:50:11;6.60;99.90
19292;DHT22;9779;51.756;7.450;2023-04-30T05:52:37;6.70;99.90
19292;DHT22;9779;51.756;7.450;2023-04-30T05:55:03;6.70;99.90
19292;DHT22;9779;51.756;7.450;2023-04-30T05:57:29;6.70;99.90
19292;DHT22;9779;51.756;7.450;2023-04-30T05:59:54;6.80;99.90
19292;DHT22;9779;51.756;7.450;2023-04-30T06:02:20;6.80;99.90
19292;DHT22;9779;51.756;7.450;2023-04-30T06:04:46;6.90;99.90
19292;DHT22;9779;51.756;7.450;2023-04-30T06:07:12;6.90;99.90
19292;DHT22;9779;51.756;7.450;2023-04-30T06:09:38;7.00;99.90
19292;DHT22;9779;51.756;7.450;2023-04-30T06:12:03;7.00;99.90
19292;DHT22;9779;51.756;7.450;2023-04-30T06:14:29;7.10;99.90
19292;DHT22;9779;51.756;7.450;2023-04-30T06:16:55;7.10;99.90
19292;DHT22;9779;51.756;7.450;2023-04-30T06:19:20;7.10;99.90
19292;DHT22;9779;51.756;7.450;2023-04-30T06:21:46;7.20;99.90
19292;DHT22;9779;51.756;7.450;2023-04-30T06:24:11;7.20;99.90
19292;DHT22;9779;51.756;7.450;2023-04-30T06:26:37;7.30;99.90
19292;DHT22;9779;51.756;7.450;2023-04-30T06:29:03;7.30;99.90
19292;DHT22;9779;51.756;7.450;2023-04-30T06:31:29;7.40;99.90
19292;DHT22;9779;51.756;7.450;2023-04-30T06:33:55;7.40;99.90
19292;DHT22;9779;51.756;7.450;2023-04-30T06:36:20;7.50;99.90
19292;DHT22;9779;51.756;7.450;2023-04-30T06:38:46;7.50;99.90
19292;DHT22;9779;51.756;7.450;2023-04-30T06:41:12;7.60;99.90
19292;DHT22;9779;51.756;7.450;2023-04-30T06:43:38;7.60;99.90
19292;DHT22;9779;51.756;7.450;2023-04-30T06:46:03;7.60;99.90
19292;DHT22;9779;51.756;7.450;2023-04-30T06:48:31;7.70;99.90
19292;DHT22;9779;51.756;7.450;2023-04-30T06:50:56;7.80;99.90
19292;DHT22;9779;51.756;7.450;2023-04-30T06:53:22;7.80;99.90
19292;DHT22;9779;51.756;7.450;2023-04-30T06:55:47;7.90;99.90
19292;DHT22;9779;51.756;7.450;2023-04-30T06:58:13;7.90;99.90
19292;DHT22;9779;51.756;7.450;2023-04-30T07:00:39;8.00;99.90
19292;DHT22;9779;51.756;7.450;2023-04-30T07:03:05;8.00;99.90
19292;DHT22;9779;51.756;7.450;2023-04-30T07:05:31;8.10;99.90
19292;DHT22;9779;51.756;7.450;2023-04-30T07:07:59;8.20;99.90
19292;DHT22;9779;51.756;7.450;2023-04-30T07:10:24;8.20;99.90
19292;DHT22;9779;51.756;7.450;2023-04-30T07:12:50;8.30;99.90
19292;DHT22;9779;51.756;7.450;2023-04-30T07:15:16;8.30;99.90
19292;DHT22;9779;51.756;7.450;2023-04-30T07:17:41;8.40;99.90
19292;DHT22;9779;51.756;7.450;2023-04-30T07:20:08;8.40;99.90
19292;DHT22;9779;51.756;7.450;2023-04-30T07:22:33;8.50;99.90
19292;DHT22;9779;51.756;7.450;2023-04-30T07:24:59;8.60;99.90
19292;DHT22;9779;51.756;7.450;2023-04-30T07:27:26;8.70;99.90
19292;DHT22;9779;51.756;7.450;2023-04-30T07:29:52;8.70;99.90
19292;DHT22;9779;51.756;7.450;2023-04-30T07:32:18;8.80;99.90
19292;DHT22;9779;51.756;7.450;2023-04-30T07:34:44;8.80;51.00
19292;DHT22;9779;51.756;7.450;2023-04-30T07:37:10;9.00;18.30
19292;DHT22;9779;51.756;7.450;2023-04-30T07:39:35;9.00;20.90
19292;DHT22;9779;51.756;7.450;2023-04-30T07:42:02;9.10;1.00
19292;DHT22;9779;51.756;7.450;2023-04-30T07:44:28;9.10;1.00
19292;DHT22;9779;51.756;7.450;2023-04-30T07:46:54;9.20;1.00
19292;DHT22;9779;51.756;7.450;2023-04-30T07:49:19;9.30;1.00
19292;DHT22;9779;51.756;7.450;2023-04-30T07:51:45;9.40;1.00
19292;DHT22;9779;51.756;7.450;2023-04-30T07:54:11;9.50;1.00
19292;DHT22;9779;51.756;7.450;2023-04-30T07:56:36;9.60;1.00
19292;DHT22;9779;51.756;7.450;2023-04-30T07:59:02;9.70;1.00
19292;DHT22;9779;51.756;7.450;2023-04-30T08:01:28;9.80;1.00
19292;DHT22;9779;51.756;7.450;2023-04-30T08:03:53;9.90;1.00
19292;DHT22;9779;51.756;7.450;2023-04-30T08:06:19;9.90;1.00
19292;DHT22;9779;51.756;7.450;2023-04-30T08:08:44;10.00;1.00
19292;DHT22;9779;51.756;7.450;2023-04-30T08:11:10;10.10;1.00
19292;DHT22;9779;51.756;7.450;2023-04-30T08:13:37;10.30;1.00
19292;DHT22;9779;51.756;7.450;2023-04-30T08:16:02;10.30;1.00
19292;DHT22;9779;51.756;7.450;2023-04-30T08:18:29;10.40;1.00
19292;DHT22;9779;51.756;7.450;2023-04-30T08:20:59;10.50;1.00
19292;DHT22;9779;51.756;7.450;2023-04-30T08:23:26;10.70;1.00
19292;DHT22;9779;51.756;7.450;2023-04-30T08:25:51;10.70;1.00
19292;DHT22;9779;51.756;7.450;2023-04-30T08:28:17;10.80;1.00
19292;DHT22;9779;51.756;7.450;2023-04-30T08:30:43;10.90;1.00
19292;DHT22;9779;51.756;7.450;2023-04-30T08:33:08;10.90;99.90
19292;DHT22;9779;51.756;7.450;2023-04-30T08:35:34;11.00;1.00
19292;DHT22;9779;51.756;7.450;2023-04-30T08:37:59;11.10;1.00
19292;DHT22;9779;51.756;7.450;2023-04-30T08:40:26;11.20;1.00
19292;DHT22;9779;51.756;7.450;2023-04-30T08:43:07;11.30;99.90
19292;DHT22;9779;51.756;7.450;2023-04-30T08:45:34;11.40;1.00
19292;DHT22;9779;51.756;7.450;2023-04-30T08:48:01;11.40;99.90
19292;DHT22;9779;51.756;7.450;2023-04-30T08:50:27;11.50;1.00
19292;DHT22;9779;51.756;7.450;2023-04-30T08:52:53;11.60;99.90
19292;DHT22;9779;51.756;7.450;2023-04-30T08:55:19;11.70;99.90
19292;DHT22;9779;51.756;7.450;2023-04-30T08:57:44;11.70;77.30
19292;DHT22;9779;51.756;7.450;2023-04-30T09:00:10;11.80;99.90
19292;DHT22;9779;51.756;7.450;2023-04-30T09:02:40;12.00;99.90
19292;DHT22;9779;51.756;7.450;2023-04-30T09:05:13;12.00;13.50
19292;DHT22;9779;51.756;7.450;2023-04-30T09:07:43;12.10;1.00
19292;DHT22;9779;51.756;7.450;2023-04-30T09:10:17;12.20;1.00
19292;DHT22;9779;51.756;7.450;2023-04-30T09:12:43;12.30;1.00
19292;DHT22;9779;51.756;7.450;2023-04-30T09:15:10;12.40;1.00
19292;DHT22;9779;51.756;7.450;2023-04-30T09:17:36;12.60;1.00
19292;DHT22;9779;51.756;7.450;2023-04-30T09:22:31;12.70;99.90
19292;DHT22;9779;51.756;7.450;2023-04-30T09:24:57;12.80;99.90
19292;DHT22;9779;51.756;7.450;2023-04-30T09:27:23;12.90;99.90
19292;DHT22;9779;51.756;7.450;2023-04-30T09:29:48;13.00;1.00
19292;DHT22;9779;51.756;7.450;2023-04-30T09:32:14;13.00;99.90
19292;DHT22;9779;51.756;7.450;2023-04-30T09:34:40;13.10;1.00
19292;DHT22;9779;51.756;7.450;2023-04-30T09:37:07;13.20;1.00
19292;DHT22;9779;51.756;7.450;2023-04-30T09:39:33;13.30;3.40
19292;DHT22;9779;51.756;7.450;2023-04-30T09:42:10;13.40;1.00
19292;DHT22;9779;51.756;7.450;2023-04-30T09:44:37;13.50;99.90
19292;DHT22;9779;51.756;7.450;2023-04-30T09:47:03;13.60;1.00
19292;DHT22;9779;51.756;7.450;2023-04-30T09:49:29;13.70;1.00
19292;DHT22;9779;51.756;7.450;2023-04-30T09:51:59;13.80;99.90
19292;DHT22;9779;51.756;7.450;2023-04-30T09:54:29;13.90;1.00
19292;DHT22;9779;51.756;7.450;2023-04-30T09:56:57;14.00;1.00
19292;DHT22;9779;51.756;7.450;2023-04-30T09:59:31;14.10;60.50
19292;DHT22;9779;51.756;7.450;2023-04-30T10:02:01;14.30;99.90
19292;DHT22;9779;51.756;7.450;2023-04-30T10:04:29;14.50;1.00
19292;DHT22;9779;51.756;7.450;2023-04-30T10:07:03;14.60;1.00
19292;DHT22;9779;51.756;7.450;2023-04-30T10:09:32;14.70;99.90
19292;DHT22;9779;51.756;7.450;2023-04-30T10:12:02;14.80;99.90
19292;DHT22;9779;51.756;7.450;2023-04-30T10:14:30;14.90;99.90
19292;DHT22;9779;51.756;7.450;2023-04-30T10:17:05;14.90;99.90
19292;DHT22;9779;51.756;7.450;2023-04-30T10:19:33;14.90;99.90
19292;DHT22;9779;51.756;7.450;2023-04-30T10:22:01;15.00;99.90
19292;DHT22;9779;51.756;7.450;2023-04-30T10:24:26;15.10;1.00
19292;DHT22;9779;51.756;7.450;2023-04-30T10:26:53;15.20;99.90
19292;DHT22;9779;51.756;7.450;2023-04-30T10:29:19;15.40;1.00
19292;DHT22;9779;51.756;7.450;2023-04-30T10:31:49;15.50;1.00
19292;DHT22;9779;51.756;7.450;2023-04-30T10:39:50;15.80;1.00
19292;DHT22;9779;51.756;7.450;2023-04-30T10:42:16;15.90;45.70
19292;DHT22;9779;51.756;7.450;2023-04-30T10:44:42;16.10;1.00
19292;DHT22;9779;51.756;7.450;2023-04-30T10:47:07;16.20;76.10
19292;DHT22;9779;51.756;7.450;2023-04-30T10:49:33;16.30;99.90
19292;DHT22;9779;51.756;7.450;2023-04-30T10:52:00;16.30;99.90
19292;DHT22;9779;51.756;7.450;2023-04-30T10:54:36;16.50;99.90
19292;DHT22;9779;51.756;7.450;2023-04-30T10:57:15;16.60;1.00
19292;DHT22;9779;51.756;7.450;2023-04-30T11:02:39;16.80;99.90
19292;DHT22;9779;51.756;7.450;2023-04-30T11:07:32;17.00;99.90
19292;DHT22;9779;51.756;7.450;2023-04-30T11:10:00;17.20;99.90
19292;DHT22;9779;51.756;7.450;2023-04-30T11:12:27;17.20;1.00
19292;DHT22;9779;51.756;7.450;2023-04-30T11:15:39;17.20;1.00
19292;DHT22;9779;51.756;7.450;2023-04-30T11:17:48;17.30;1.00
19292;DHT22;9779;51.756;7.450;2023-04-30T11:20:22;17.50;1.00
19292;DHT22;9779;51.756;7.450;2023-04-30T11:22:47;17.60;1.00
19292;DHT22;9779;51.756;7.450;2023-04-30T11:25:18;17.80;1.00
19292;DHT22;9779;51.756;7.450;2023-04-30T11:27:44;17.90;1.00
19292;DHT22;9779;51.756;7.450;2023-04-30T11:30:15;18.00;1.00
19292;DHT22;9779;51.756;7.450;2023-04-30T11:32:46;18.10;1.00
19292;DHT22;9779;51.756;7.450;2023-04-30T11:35:13;18.20;1.00
19292;DHT22;9779;51.756;7.450;2023-04-30T11:37:41;18.40;1.00
19292;DHT22;9779;51.756;7.450;2023-04-30T11:40:13;18.50;99.90
19292;DHT22;9779;51.756;7.450;2023-04-30T11:42:41;18.70;99.90
19292;DHT22;9779;51.756;7.450;2023-04-30T11:45:16;18.80;99.90
19292;DHT22;9779;51.756;7.450;2023-04-30T11:47:44;18.90;99.90
19292;DHT22;9779;51.756;7.450;2023-04-30T11:50:13;19.10;99.90
19292;DHT22;9779;51.756;7.450;2023-04-30T11:52:40;19.20;99.90
19292;DHT22;9779;51.756;7.450;2023-04-30T11:55:15;19.30;99.90
19292;DHT22;9779;51.756;7.450;2023-04-30T11:57:46;19.40;99.90
19292;DHT22;9779;51.756;7.450;2023-04-30T12:00:16;19.50;99.90
19292;DHT22;9779;51.756;7.450;2023-04-30T12:02:44;19.60;99.90
19292;DHT22;9779;51.756;7.450;2023-04-30T12:05:22;19.70;99.90
19292;DHT22;9779;51.756;7.450;2023-04-30T12:07:54;19.80;99.90
19292;DHT22;9779;51.756;7.450;2023-04-30T12:10:20;19.80;99.90
19292;DHT22;9779;51.756;7.450;2023-04-30T12:12:47;20.00;99.90
19292;DHT22;9779;51.756;7.450;2023-04-30T12:15:18;20.00;99.90
19292;DHT22;9779;51.756;7.450;2023-04-30T12:17:45;19.90;26.30
19292;DHT22;9779;51.756;7.450;2023-04-30T12:20:12;20.10;45.30
19292;DHT22;9779;51.756;7.450;2023-04-30T12:22:40;20.20;26.30
19292;DHT22;9779;51.756;7.450;2023-04-30T12:25:07;20.30;10.80
19292;DHT22;9779;51.756;7.450;2023-04-30T12:27:35;20.30;1.00
19292;DHT22;9779;51.756;7.450;2023-04-30T12:30:08;20.50;1.00
19292;DHT22;9779;51.756;7.450;2023-04-30T12:35:04;20.90;1.00
19292;DHT22;9779;51.756;7.450;2023-04-30T12:37:30;20.50;1.00
19292;DHT22;9779;51.756;7.450;2023-04-30T12:39:56;20.20;1.00
19292;DHT22;9779;51.756;7.450;2023-04-30T12:42:22;20.40;1.00
19292;DHT22;9779;51.756;7.450;2023-04-30T12:44:48;20.60;1.00
19292;DHT22;9779;51.756;7.450;2023-04-30T12:47:14;20.60;1.00
19292;DHT22;9779;51.756;7.450;2023-04-30T12:49:41;20.70;1.00
19292;DHT22;9779;51.756;7.450;2023-04-30T12:52:10;20.80;1.00
19292;DHT22;9779;51.756;7.450;2023-04-30T12:54:37;20.90;1.00
19292;DHT22;9779;51.756;7.450;2023-04-30T12:57:04;21.10;1.00
19292;DHT22;9779;51.756;7.450;2023-04-30T12:59:31;21.10;1.00
19292;DHT22;9779;51.756;7.450;2023-04-30T13:02:11;21.20;1.00
19292;DHT22;9779;51.756;7.450;2023-04-30T13:04:38;21.10;1.00
19292;DHT22;9779;51.756;7.450;2023-04-30T13:07:04;21.30;1.00
19292;DHT22;9779;51.756;7.450;2023-04-30T13:09:34;21.40;1.00
19292;DHT22;9779;51.756;7.450;2023-04-30T13:12:00;21.30;1.00
19292;DHT22;9779;51.756;7.450;2023-04-30T13:14:26;21.50;1.00
19292;DHT22;9779;51.756;7.450;2023-04-30T13:16:51;21.60;1.00
19292;DHT22;9779;51.756;7.450;2023-04-30T13:19:18;21.50;1.00
19292;DHT22;9779;51.756;7.450;2023-04-30T13:21:44;21.70;1.00
19292;DHT22;9779;51.756;7.450;2023-04-30T13:24:09;21.80;1.00
19292;DHT22;9779;51.756;7.450;2023-04-30T13:26:35;21.90;1.00
19292;DHT22;9779;51.756;7.450;2023-04-30T13:29:01;22.00;1.00
19292;DHT22;9779;51.756;7.450;2023-04-30T13:31:27;22.30;1.00
19292;DHT22;9779;51.756;7.450;2023-04-30T13:33:52;22.40;1.00
19292;DHT22;9779;51.756;7.450;2023-04-30T13:36:19;22.50;1.00
19292;DHT22;9779;51.756;7.450;2023-04-30T13:38:45;22.50;1.00
19292;DHT22;9779;51.756;7.450;2023-04-30T13:41:11;22.60;1.00
19292;DHT22;9779;51.756;7.450;2023-04-30T13:43:36;22.80;1.00
19292;DHT22;9779;51.756;7.450;2023-04-30T13:46:03;22.70;1.00
19292;DHT22;9779;51.756;7.450;2023-04-30T13:48:29;22.70;1.00
19292;DHT22;9779;51.756;7.450;2023-04-30T13:50:55;22.30;1.00
19292;DHT22;9779;51.756;7.450;2023-04-30T13:53:20;22.30;1.00
19292;DHT22;9779;51.756;7.450;2023-04-30T13:55:46;22.40;1.00
19292;DHT22;9779;51.756;7.450;2023-04-30T13:58:12;22.50;1.00
19292;DHT22;9779;51.756;7.450;2023-04-30T14:00:38;22.80;1.00
19292;DHT22;9779;51.756;7.450;2023-04-30T14:03:03;22.50;1.00
19292;DHT22;9779;51.756;7.450;2023-04-30T14:05:29;22.00;1.00
19292;DHT22;9779;51.756;7.450;2023-04-30T14:07:54;21.80;1.00
19292;DHT22;9779;51.756;7.450;2023-04-30T14:10:20;21.50;1.00
19292;DHT22;9779;51.756;7.450;2023-04-30T14:12:45;21.40;1.00
19292;DHT22;9779;51.756;7.450;2023-04-30T14:15:12;21.20;1.00
19292;DHT22;9779;51.756;7.450;2023-04-30T14:17:37;21.30;1.00
19292;DHT22;9779;51.756;7.450;2023-04-30T14:20:04;21.80;1.00
19292;DHT22;9779;51.756;7.450;2023-04-30T14:22:30;22.00;1.00
19292;DHT22;9779;51.756;7.450;2023-04-30T14:24:58;22.30;1.00
19292;DHT22;9779;51.756;7.450;2023-04-30T14:27:24;22.40;1.00
19292;DHT22;9779;51.756;7.450;2023-04-30T14:29:49;22.50;1.00
19292;DHT22;9779;51.756;7.450;2023-04-30T14:32:15;22.70;1.00
19292;DHT22;9779;51.756;7.450;2023-04-30T14:34:41;22.90;1.00
19292;DHT22;9779;51.756;7.450;2023-04-30T14:37:07;23.00;1.00
19292;DHT22;9779;51.756;7.450;2023-04-30T14:39:32;23.10;1.00
19292;DHT22;9779;51.756;7.450;2023-04-30T14:41:58;23.20;1.00
19292;DHT22;9779;51.756;7.450;2023-04-30T14:44:23;23.40;1.00
19292;DHT22;9779;51.756;7.450;2023-04-30T14:46:50;23.40;1.00
19292;DHT22;9779;51.756;7.450;2023-04-30T14:49:15;23.40;1.00
19292;DHT22;9779;51.756;7.450;2023-04-30T14:51:41;23.60;1.00
19292;DHT22;9779;51.756;7.450;2023-04-30T14:54:07;24.10;1.00
19292;DHT22;9779;51.756;7.450;2023-04-30T15:08:43;24.00;1.00
19292;DHT22;9779;51.756;7.450;2023-04-30T15:11:08;24.10;1.00
19292;DHT22;9779;51.756;7.450;2023-04-30T15:13:36;24.00;1.00
19292;DHT22;9779;51.756;7.450;2023-04-30T15:16:01;23.80;1.00
19292;DHT22;9779;51.756;7.450;2023-04-30T15:18:27;23.80;1.00
19292;DHT22;9779;51.756;7.450;2023-04-30T15:20:52;24.00;1.00
19292;DHT22;9779;51.756;7.450;2023-04-30T15:23:18;24.10;1.00
19292;DHT22;9779;51.756;7.450;2023-04-30T15:25:44;24.50;99.90
19292;DHT22;9779;51.756;7.450;2023-04-30T15:28:09;24.30;1.00
19292;DHT22;9779;51.756;7.450;2023-04-30T15:30:35;24.40;1.00
19292;DHT22;9779;51.756;7.450;2023-04-30T15:33:01;24.50;1.00
19292;DHT22;9779;51.756;7.450;2023-04-30T15:35:27;24.60;1.00
19292;DHT22;9779;51.756;7.450;2023-04-30T15:37:52;24.70;1.00
19292;DHT22;9779;51.756;7.450;2023-04-30T15:40:18;24.50;1.00
19292;DHT22;9779;51.756;7.450;2023-04-30T15:42:43;24.40;1.00
19292;DHT22;9779;51.756;7.450;2023-04-30T15:45:09;24.20;1.00
19292;DHT22;9779;51.756;7.450;2023-04-30T15:47:36;24.40;1.00
19292;DHT22;9779;51.756;7.450;2023-04-30T15:50:02;24.60;1.00
19292;DHT22;9779;51.756;7.450;2023-04-30T15:52:28;24.80;1.00
19292;DHT22;9779;51.756;7.450;2023-04-30T15:54:53;24.90;1.00
19292;DHT22;9779;51.756;7.450;2023-04-30T15:57:19;24.90;1.00
19292;DHT22;9779;51.756;7.450;2023-04-30T15:59:44;24.70;1.00
19292;DHT22;9779;51.756;7.450;2023-04-30T16:02:10;24.70;1.00
19292;DHT22;9779;51.756;7.450;2023-04-30T16:04:36;24.70;1.00
19292;DHT22;9779;51.756;7.450;2023-04-30T16:07:02;24.60;1.00
19292;DHT22;9779;51.756;7.450;2023-04-30T16:09:29;24.50;1.00
19292;DHT22;9779;51.756;7.450;2023-04-30T16:11:55;24.30;1.00
19292;DHT22;9779;51.756;7.450;2023-04-30T16:14:20;24.40;1.00
19292;DHT22;9779;51.756;7.450;2023-04-30T16:16:46;24.40;1.00
19292;DHT22;9779;51.756;7.450;2023-04-30T16:19:12;24.20;1.00
19292;DHT22;9779;51.756;7.450;2023-04-30T16:21:38;24.10;1.00
19292;DHT22;9779;51.756;7.450;2023-04-30T16:24:07;24.20;1.00
19292;DHT22;9779;51.756;7.450;2023-04-30T16:26:34;24.30;1.00
19292;DHT22;9779;51.756;7.450;2023-04-30T16:29:00;24.00;1.00
19292;DHT22;9779;51.756;7.450;2023-04-30T16:31:26;23.70;1.00
19292;DHT22;9779;51.756;7.450;2023-04-30T16:33:52;23.70;1.00
19292;DHT22;9779;51.756;7.450;2023-04-30T16:36:18;23.50;1.00
19292;DHT22;9779;51.756;7.450;2023-04-30T16:38:43;23.50;1.00
19292;DHT22;9779;51.756;7.450;2023-04-30T16:41:14;23.40;1.00
19292;DHT22;9779;51.756;7.450;2023-04-30T16:43:39;23.30;1.00